Neptune Antlia — S6BE — position and weather

sailwx.info

Track history (hours):
 
Tides and Currents Weather Stations Pressure Air Temp Water Temp Dewpoint Dewpoint Depression Visibility Wind Speed Wind Dir Waves Ship Positions

Neptune Antlia

Last reported at 2015-May-11 22:33 UTC. Time now 2015-May-29 14:25 UTC.
Position S 35°07' W 057°04'.
Warning: this ship's position is 17 days out of date.

Type: Cargo ship. MMSI: 563737000.

Date/timePositionNaut miles runAvg speedWind from/ knotsBaromVisibWave heightAir tempDewpointWater temp
2015-May-11 22:33S 35°07' W 057°04'1211.7
2015-May-11 21:33S 34°58' W 057°14'1312.8
2015-May-11 20:33S 34°50' W 057°25'1413.8
2015-May-11 19:33S 34°44' W 057°41'1212.1
2015-May-11 18:32S 34°42' W 057°56'9 9.0
2015-May-11 17:33S 34°33' W 057°56'1010.1
2015-May-11 16:33S 34°23' W 057°60'9 9.2
2015-May-11 15:32S 34°15' W 058°04'8 8.4
2015-May-11 14:32S 34°11' W 058°13'  
2015-May-07 23:09S 34°10' W 058°15'712.1
2015-May-07 22:34S 34°13' W 058°07'1211.9
2015-May-07 21:33S 34°23' W 057°60'1111.0
2015-May-07 20:33S 34°33' W 057°56'9 8.6
2015-May-07 19:34S 34°42' W 057°55'2 2.1
2015-May-07 18:34S 34°42' W 057°52'1 1.3
2015-May-07 17:34S 34°43' W 057°50'1 1.4
2015-May-07 16:33S 34°43' W 057°49'1111.3
2015-May-07 15:33S 34°45' W 057°35'  
2015-May-04 20:19S 24°39' W 046°33'1114.0
2015-May-04 19:33S 24°29' W 046°29'1414.1
2015-May-04 18:33S 24°18' W 046°19'10 6.7
2015-May-04 17:05S 24°12' W 046°11'0 0.0
2015-May-04 16:26S 24°12' W 046°11'0 0.0
2015-May-04 15:23S 24°12' W 046°11'0 0.0
2015-May-04 12:32S 24°12' W 046°11'0 0.1
2015-May-04 11:32S 24°12' W 046°11'0 0.1
2015-May-04 10:14S 24°12' W 046°11'0 0.2
2015-May-04 09:14S 24°12' W 046°11'0 0.0
2015-May-04 07:11S 24°12' W 046°11'0 0.0
2015-May-04 06:29S 24°12' W 046°11'0 0.0
2015-May-04 05:14S 24°12' W 046°11'0 0.0
2015-May-04 04:32S 24°12' W 046°11'0 0.0
2015-May-04 03:29S 24°12' W 046°11'0 0.0
2015-May-04 02:20S 24°12' W 046°11'0 0.0
2015-May-04 00:05S 24°12' W 046°11'0 0.0
2015-May-03 23:23S 24°12' W 046°11'0 0.0
2015-May-03 19:32S 24°12' W 046°11'10 9.8
2015-May-03 18:33S 24°18' W 046°03'3 2.5
2015-May-03 17:32S 24°19' W 046°01'0 0.1
2015-May-03 16:33S 24°19' W 046°01'10 9.7
2015-May-03 15:30S 24°23' W 046°11'1212.4
2015-May-03 14:33S 24°15' W 046°20'1212.4
2015-May-03 13:34S 24°02' W 046°22'6 5.8
2015-May-03 12:33S 23°57' W 046°18'0 0.2
2015-May-03 11:33S 23°57' W 046°19'0 0.0
2015-May-03 10:33S 23°57' W 046°19'0 0.0
2015-May-03 09:33S 23°57' W 046°19'0 0.0
2015-May-03 08:33S 23°57' W 046°19'0 0.0
2015-May-03 07:33S 23°57' W 046°19'0 0.0
2015-May-03 06:33S 23°57' W 046°19'0 0.0
2015-May-03 05:33S 23°57' W 046°19'0 0.0
2015-May-03 04:33S 23°57' W 046°19'0 0.0
2015-May-03 03:33S 23°57' W 046°19'0 0.0
2015-May-03 02:33S 23°57' W 046°19'0 0.0
2015-May-03 01:33S 23°57' W 046°19'0 0.0
2015-May-03 00:33S 23°57' W 046°19'0 0.0
2015-May-02 23:33S 23°57' W 046°19'0 0.0
2015-May-02 22:33S 23°57' W 046°19'0 0.0
2015-May-02 21:33S 23°57' W 046°19'0 0.0
2015-May-02 20:33S 23°57' W 046°19'0 0.0
2015-May-02 19:33S 23°57' W 046°19'0 0.0
2015-May-02 18:33S 23°57' W 046°19'0 0.0
2015-May-02 17:33S 23°57' W 046°19'0 0.0
2015-May-02 16:33S 23°57' W 046°19'0 0.0
2015-May-02 15:33S 23°57' W 046°19'0 0.0
2015-May-02 14:33S 23°57' W 046°19'0 0.0
2015-May-02 13:33S 23°57' W 046°19'0 0.0
2015-May-02 12:33S 23°57' W 046°19'0 0.0
2015-May-02 11:33S 23°57' W 046°19'0 0.0
2015-May-02 10:33S 23°57' W 046°19'0 0.0
2015-May-02 09:33S 23°57' W 046°19'0 0.0
2015-May-02 08:33S 23°57' W 046°19'0 0.0
2015-May-02 07:33S 23°57' W 046°19'0 0.0
2015-May-02 06:33S 23°57' W 046°19'0 0.0
2015-May-02 05:33S 23°57' W 046°19'0 0.0
2015-May-02 04:33S 23°57' W 046°19'0 0.0
2015-May-02 03:33S 23°57' W 046°19'0 0.0
2015-May-02 02:33S 23°57' W 046°19'0 0.0
2015-May-02 01:33S 23°57' W 046°19'0 0.0
2015-May-02 00:33S 23°57' W 046°19'0 0.0
2015-May-01 23:33S 23°57' W 046°19'0 0.0
2015-May-01 22:33S 23°57' W 046°19'  
Track history (hours):
 
Tides and Currents Weather Stations Pressure Air Temp Water Temp Dewpoint Dewpoint Depression Visibility Wind Speed Wind Dir Waves Ship Positions

Neptune Antlia

Last reported at 2015-May-11 22:33 UTC. Time now 2015-May-29 14:25 UTC.
Position S 35°07' W 057°04'.
Warning: this ship's position is 17 days out of date.

Type: Cargo ship. MMSI: 563737000.

Date/timePositionNaut miles runAvg speedWind from/ knotsBaromVisibWave heightAir tempDewpointWater temp
2015-May-11 22:33S 35°07' W 057°04'1211.7
2015-May-11 21:33S 34°58' W 057°14'1312.8
2015-May-11 20:33S 34°50' W 057°25'1413.8
2015-May-11 19:33S 34°44' W 057°41'1212.1
2015-May-11 18:32S 34°42' W 057°56'9 9.0
2015-May-11 17:33S 34°33' W 057°56'1010.1
2015-May-11 16:33S 34°23' W 057°60'9 9.2
2015-May-11 15:32S 34°15' W 058°04'8 8.4
2015-May-11 14:32S 34°11' W 058°13'  
2015-May-07 23:09S 34°10' W 058°15'712.1
2015-May-07 22:34S 34°13' W 058°07'1211.9
2015-May-07 21:33S 34°23' W 057°60'1111.0
2015-May-07 20:33S 34°33' W 057°56'9 8.6
2015-May-07 19:34S 34°42' W 057°55'2 2.1
2015-May-07 18:34S 34°42' W 057°52'1 1.3
2015-May-07 17:34S 34°43' W 057°50'1 1.4
2015-May-07 16:33S 34°43' W 057°49'1111.3
2015-May-07 15:33S 34°45' W 057°35'  
2015-May-04 20:19S 24°39' W 046°33'1114.0
2015-May-04 19:33S 24°29' W 046°29'1414.1
2015-May-04 18:33S 24°18' W 046°19'10 6.7
2015-May-04 17:05S 24°12' W 046°11'0 0.0
2015-May-04 16:26S 24°12' W 046°11'0 0.0
2015-May-04 15:23S 24°12' W 046°11'0 0.0
2015-May-04 12:32S 24°12' W 046°11'0 0.1
2015-May-04 11:32S 24°12' W 046°11'0 0.1
2015-May-04 10:14S 24°12' W 046°11'0 0.2
2015-May-04 09:14S 24°12' W 046°11'0 0.0
2015-May-04 07:11S 24°12' W 046°11'0 0.0
2015-May-04 06:29S 24°12' W 046°11'0 0.0
2015-May-04 05:14S 24°12' W 046°11'0 0.0
2015-May-04 04:32S 24°12' W 046°11'0 0.0
2015-May-04 03:29S 24°12' W 046°11'0 0.0
2015-May-04 02:20S 24°12' W 046°11'0 0.0
2015-May-04 00:05S 24°12' W 046°11'0 0.0
2015-May-03 23:23S 24°12' W 046°11'0 0.0
2015-May-03 19:32S 24°12' W 046°11'10 9.8
2015-May-03 18:33S 24°18' W 046°03'3 2.5
2015-May-03 17:32S 24°19' W 046°01'0 0.1
2015-May-03 16:33S 24°19' W 046°01'10 9.7
2015-May-03 15:30S 24°23' W 046°11'1212.4
2015-May-03 14:33S 24°15' W 046°20'1212.4
2015-May-03 13:34S 24°02' W 046°22'6 5.8
2015-May-03 12:33S 23°57' W 046°18'0 0.2
2015-May-03 11:33S 23°57' W 046°19'0 0.0
2015-May-03 10:33S 23°57' W 046°19'0 0.0
2015-May-03 09:33S 23°57' W 046°19'0 0.0
2015-May-03 08:33S 23°57' W 046°19'0 0.0
2015-May-03 07:33S 23°57' W 046°19'0 0.0
2015-May-03 06:33S 23°57' W 046°19'0 0.0
2015-May-03 05:33S 23°57' W 046°19'0 0.0
2015-May-03 04:33S 23°57' W 046°19'0 0.0
2015-May-03 03:33S 23°57' W 046°19'0 0.0
2015-May-03 02:33S 23°57' W 046°19'0 0.0
2015-May-03 01:33S 23°57' W 046°19'0 0.0
2015-May-03 00:33S 23°57' W 046°19'0 0.0
2015-May-02 23:33S 23°57' W 046°19'0 0.0
2015-May-02 22:33S 23°57' W 046°19'0 0.0
2015-May-02 21:33S 23°57' W 046°19'0 0.0
2015-May-02 20:33S 23°57' W 046°19'0 0.0
2015-May-02 19:33S 23°57' W 046°19'0 0.0
2015-May-02 18:33S 23°57' W 046°19'0 0.0
2015-May-02 17:33S 23°57' W 046°19'0 0.0
2015-May-02 16:33S 23°57' W 046°19'0 0.0
2015-May-02 15:33S 23°57' W 046°19'0 0.0
2015-May-02 14:33S 23°57' W 046°19'0 0.0
2015-May-02 13:33S 23°57' W 046°19'0 0.0
2015-May-02 12:33S 23°57' W 046°19'0 0.0
2015-May-02 11:33S 23°57' W 046°19'0 0.0
2015-May-02 10:33S 23°57' W 046°19'0 0.0
2015-May-02 09:33S 23°57' W 046°19'0 0.0
2015-May-02 08:33S 23°57' W 046°19'0 0.0
2015-May-02 07:33S 23°57' W 046°19'0 0.0
2015-May-02 06:33S 23°57' W 046°19'0 0.0
2015-May-02 05:33S 23°57' W 046°19'0 0.0
2015-May-02 04:33S 23°57' W 046°19'0 0.0
2015-May-02 03:33S 23°57' W 046°19'0 0.0
2015-May-02 02:33S 23°57' W 046°19'0 0.0
2015-May-02 01:33S 23°57' W 046°19'0 0.0
2015-May-02 00:33S 23°57' W 046°19'0 0.0
2015-May-01 23:33S 23°57' W 046°19'0 0.0
2015-May-01 22:33S 23°57' W 046°19'  

Dump ship's entire track history